Time;durP1;ratioP1;P1;durP2;ratioP2;P2;SDS_P1;SDS_P2;PMS_P1;PMS_P2;Temp;Humidity;BMP_temperature;BMP_pressure;BME280_temperature;BME280_humidity;BME280_pressure;Samples;Min_cycle;Max_cycle;Signal;HPM_P1;HPM_P2
2022/03/19 00:01:29;;;;;;;90.43;83.93;;;;;;;9.52;100.00;104162.89;1991713;71;33228;-67
2022/03/19 00:07:14;;;;;;;89.97;83.00;;;;;;;9.43;100.00;104160.77;2016767;71;32973;-68
2022/03/19 00:12:59;;;;;;;90.37;83.57;;;;;;;9.51;100.00;104159.25;2004754;71;33231;-68
2022/03/19 00:18:46;;;;;;;91.17;84.47;;;;;;;9.37;100.00;104160.16;1994895;71;32898;-68
2022/03/19 00:24:32;;;;;;;95.20;88.20;;;;;;;9.25;100.00;104167.80;1991606;71;32752;-68
2022/03/19 00:30:17;;;;;;;92.27;85.00;;;;;;;9.17;100.00;104167.41;2011395;71;32830;-67
2022/03/19 00:36:04;;;;;;;92.20;85.20;;;;;;;9.06;100.00;104168.78;1999045;71;32758;-67
2022/03/19 00:41:48;;;;;;;91.20;83.97;;;;;;;9.08;100.00;104159.72;2002542;71;32805;-68
2022/03/19 00:47:34;;;;;;;100.23;92.80;;;;;;;9.03;100.00;104155.28;2004209;71;32909;-72
2022/03/19 00:53:29;;;;;;;99.20;91.77;;;;;;;9.05;100.00;104150.41;1984236;72;33009;-74
2022/03/19 00:59:14;;;;;;;94.63;86.70;;;;;;;8.91;100.00;104144.88;2008017;71;32971;-73
2022/03/19 01:04:58;;;;;;;93.30;86.07;;;;;;;8.91;100.00;104151.30;2011148;71;32817;-73
2022/03/19 01:10:44;;;;;;;96.50;88.43;;;;;;;8.89;100.00;104145.09;2011811;71;32836;-67
2022/03/19 01:16:30;;;;;;;96.77;89.13;;;;;;;8.81;100.00;104139.67;2004567;71;32772;-74
2022/03/19 01:22:14;;;;;;;100.50;92.17;;;;;;;8.79;100.00;104127.89;2013413;71;33410;-73
2022/03/19 01:27:58;;;;;;;95.50;87.80;;;;;;;8.88;100.00;104114.78;1995561;71;32771;-67
2022/03/19 01:33:43;;;;;;;98.73;90.63;;;;;;;8.77;100.00;104107.81;2004574;71;33377;-72
2022/03/19 01:39:27;;;;;;;93.27;85.87;;;;;;;8.41;100.00;104098.59;2016865;71;32883;-68
2022/03/19 01:45:13;;;;;;;94.03;86.67;;;;;;;7.98;100.00;104091.43;2011763;71;32824;-67
2022/03/19 01:50:58;;;;;;;94.93;87.00;;;;;;;7.70;100.00;104092.55;2016782;71;32916;-68
2022/03/19 01:56:42;;;;;;;93.17;85.63;;;;;;;7.85;100.00;104083.44;2008338;71;33386;-73
2022/03/19 02:02:29;;;;;;;89.63;82.03;;;;;;;7.31;100.00;104086.34;2004662;71;33277;-67
2022/03/19 02:08:12;;;;;;;89.30;81.97;;;;;;;7.29;100.00;104070.45;2007510;71;32798;-67
2022/03/19 02:13:56;;;;;;;90.50;83.10;;;;;;;7.09;100.00;104071.47;2017167;71;33359;-66
2022/03/19 02:19:50;;;;;;;89.90;82.27;;;;;;;6.92;100.00;104062.95;2013226;71;32827;-67
2022/03/19 02:25:38;;;;;;;87.40;80.10;;;;;;;6.88;100.00;104060.22;2004693;71;32756;-68
2022/03/19 02:31:23;;;;;;;86.70;79.20;;;;;;;6.65;100.00;104057.92;2018658;70;32961;-73
2022/03/19 02:37:07;;;;;;;89.93;82.40;;;;;;;6.53;100.00;104053.84;2006547;71;32801;-73
2022/03/19 02:42:53;;;;;;;91.23;83.77;;;;;;;6.47;100.00;104043.50;2017149;71;33353;-73
2022/03/19 02:48:38;;;;;;;91.40;84.20;;;;;;;6.38;100.00;104049.06;1998604;71;32821;-74
2022/03/19 02:54:25;;;;;;;89.07;81.67;;;;;;;6.37;100.00;104041.81;1991881;71;33286;-68
2022/03/19 03:00:14;;;;;;;90.00;82.80;;;;;;;6.47;100.00;104022.80;2005963;71;33319;-73
2022/03/19 03:05:58;;;;;;;88.57;81.23;;;;;;;6.48;100.00;104025.38;2009610;70;32832;-73
2022/03/19 03:11:43;;;;;;;91.90;84.67;;;;;;;6.33;100.00;104019.75;1991660;71;32746;-73
2022/03/19 03:17:28;;;;;;;89.17;81.87;;;;;;;6.31;100.00;104014.94;2016817;71;33380;-67
2022/03/19 03:23:14;;;;;;;88.50;81.33;;;;;;;6.37;100.00;104003.70;2013774;71;32754;-67
2022/03/19 03:28:59;;;;;;;89.23;81.90;;;;;;;6.34;100.00;104006.30;2018650;71;32882;-67
2022/03/19 03:34:44;;;;;;;91.83;84.30;;;;;;;6.21;100.00;104003.77;2005929;71;32927;-67
2022/03/19 03:40:28;;;;;;;89.87;81.97;;;;;;;6.77;100.00;103997.06;2007737;71;32818;-68
2022/03/19 03:46:12;;;;;;;95.27;87.10;;;;;;;6.56;100.00;103995.47;2016791;71;32886;-68
2022/03/19 03:51:57;;;;;;;93.57;86.17;;;;;;;6.44;100.00;103996.41;1991803;71;32821;-73
2022/03/19 03:57:41;;;;;;;91.33;82.73;;;;;;;6.90;100.00;103985.39;2000949;71;33336;-74
2022/03/19 04:03:27;;;;;;;96.53;88.13;;;;;;;7.65;100.00;103976.59;2011562;71;33321;-66
2022/03/19 04:09:11;;;;;;;98.90;90.30;;;;;;;7.87;100.00;103974.79;2017218;71;33372;-68
2022/03/19 04:14:55;;;;;;;102.17;93.93;;;;;;;8.03;100.00;103968.52;1994914;71;32825;-67
2022/03/19 04:20:40;;;;;;;103.23;94.97;;;;;;;8.26;100.00;103971.70;2012073;70;33317;-73
2022/03/19 04:23:12;;;;;;;102.70;94.20;;;;;;;8.24;100.00;103972.74;1958725;72;26289;-73
2022/03/19 04:28:58;;;;;;;102.97;95.00;;;;;;;8.45;100.00;103964.17;2017013;71;32813;-68
2022/03/19 04:34:43;;;;;;;98.90;90.93;;;;;;;8.37;100.00;103961.52;2011459;71;33387;-68
2022/03/19 04:40:27;;;;;;;101.10;93.07;;;;;;;8.54;100.00;103953.31;2011957;71;33343;-74
2022/03/19 04:46:11;;;;;;;101.10;92.73;;;;;;;8.29;100.00;103947.77;1995255;71;32762;-74
2022/03/19 04:51:56;;;;;;;103.37;94.87;;;;;;;8.33;100.00;103945.83;2004386;71;32855;-74
2022/03/19 04:57:40;;;;;;;101.03;92.17;;;;;;;8.53;100.00;103944.13;2004261;71;33377;-73
2022/03/19 05:03:27;;;;;;;96.97;89.17;;;;;;;8.47;100.00;103943.52;1878442;75;86238;-73
2022/03/19 05:15:14;;;;;;;101.57;93.40;;;;;;;8.31;100.00;103940.12;2004438;71;32835;-68
2022/03/19 05:20:58;;;;;;;96.90;88.90;;;;;;;8.61;100.00;103932.06;2006414;71;32791;-67
2022/03/19 05:26:42;;;;;;;99.77;91.73;;;;;;;8.53;100.00;103928.89;2014909;71;32915;-67
2022/03/19 05:32:27;;;;;;;94.27;86.57;;;;;;;8.63;100.00;103932.21;1995406;71;32858;-68
2022/03/19 05:38:12;;;;;;;96.13;88.30;;;;;;;8.68;100.00;103926.08;2013320;71;32899;-74
2022/03/19 05:43:56;;;;;;;93.83;86.17;;;;;;;8.51;100.00;103917.17;1991572;71;32850;-74
2022/03/19 05:49:41;;;;;;;94.23;87.03;;;;;;;8.63;100.00;103908.66;2002716;71;32834;-74
2022/03/19 05:55:25;;;;;;;96.23;88.57;;;;;;;8.57;100.00;103906.66;2006587;70;33211;-74
2022/03/19 06:01:11;;;;;;;100.80;92.93;;;;;;;8.44;100.00;103902.36;2005832;71;32934;-74
2022/03/19 06:06:56;;;;;;;95.27;87.20;;;;;;;8.43;100.00;103909.51;2001635;71;32767;-74
2022/03/19 06:18:53;;;;;;;93.43;86.23;;;;;;;8.46;100.00;103913.27;1991779;71;32844;-68
2022/03/19 06:24:37;;;;;;;94.63;87.13;;;;;;;8.29;100.00;103923.73;2006520;71;33317;-67
2022/03/19 06:30:22;;;;;;;92.87;85.80;;;;;;;8.36;100.00;103928.80;2009715;71;32850;-67
2022/03/19 06:42:09;;;;;;;91.30;84.07;;;;;;;8.40;100.00;103924.59;2016920;71;32919;-73
2022/03/19 06:47:53;;;;;;;90.80;83.97;;;;;;;8.51;100.00;103914.92;1994838;71;32804;-68
2022/03/19 06:53:38;;;;;;;90.93;84.27;;;;;;;8.51;100.00;103914.39;2006428;71;32876;-74
2022/03/19 06:59:22;;;;;;;90.63;84.10;;;;;;;8.67;100.00;103916.91;1998464;71;32814;-67
2022/03/19 07:05:07;;;;;;;87.23;81.03;;;;;;;8.68;100.00;103911.66;1980105;72;33074;-68
2022/03/19 07:10:52;;;;;;;87.80;81.43;;;;;;;8.82;100.00;103898.80;2010239;71;33229;-73
2022/03/19 07:16:38;;;;;;;87.47;81.60;;;;;;;8.74;100.00;103907.77;2007957;71;33345;-73
2022/03/19 07:22:22;;;;;;;86.93;80.63;;;;;;;8.92;100.00;103894.30;1994937;71;32813;-67
2022/03/19 07:28:08;;;;;;;82.77;77.17;;;;;;;8.96;100.00;103896.48;2015222;71;32924;-67
2022/03/19 07:33:52;;;;;;;82.57;77.23;;;;;;;9.20;100.00;103886.84;1995047;71;32999;-75
2022/03/19 07:39:36;;;;;;;84.57;79.00;;;;;;;9.18;100.00;103882.57;1991595;71;32763;-68
2022/03/19 07:45:22;;;;;;;83.93;78.47;;;;;;;9.27;100.00;103884.13;2011675;71;32911;-73
2022/03/19 07:51:06;;;;;;;80.00;74.70;;;;;;;9.58;100.00;103874.84;2003920;71;33053;-68
2022/03/19 07:56:51;;;;;;;78.10;73.17;;;;;;;9.85;100.00;103866.09;2016842;71;32852;-67
2022/03/19 08:02:35;;;;;;;73.60;69.00;;;;;;;10.17;100.00;103864.02;2008076;70;32838;-65
2022/03/19 08:08:20;;;;;;;73.57;68.87;;;;;;;10.41;100.00;103865.34;1995296;71;32776;-68
2022/03/19 08:14:06;;;;;;;74.07;69.47;;;;;;;10.57;100.00;103851.61;2009960;71;32775;-66
2022/03/19 08:19:50;;;;;;;70.10;65.53;;;;;;;10.79;100.00;103852.56;2014887;71;31063;-74
2022/03/19 08:25:34;;;;;;;71.93;67.43;;;;;;;10.95;100.00;103850.73;2013250;71;33427;-76
2022/03/19 08:31:19;;;;;;;68.03;63.73;;;;;;;11.18;100.00;103848.05;1998693;71;32844;-68
2022/03/19 08:37:04;;;;;;;64.87;60.60;;;;;;;11.46;100.00;103847.78;2016720;71;32915;-71
2022/03/19 08:42:51;;;;;;;67.90;63.80;;;;;;;11.41;100.00;103841.48;2005748;71;32912;-72
2022/03/19 08:48:36;;;;;;;67.57;63.03;;;;;;;11.74;100.00;103842.25;2012191;71;32813;-69
2022/03/19 08:54:21;;;;;;;62.37;58.60;;;;;;;11.74;100.00;103837.22;2017034;71;30859;-72
2022/03/19 09:00:09;;;;;;;53.63;50.17;;;;;;;11.74;100.00;103845.57;2011359;71;32814;-71
2022/03/19 09:05:52;;;;;;;53.67;50.17;;;;;;;12.00;100.00;103829.28;2002811;70;32873;-70
2022/03/19 09:11:38;;;;;;;52.70;49.33;;;;;;;12.17;100.00;103832.72;2015381;71;32903;-71
2022/03/19 09:17:23;;;;;;;49.13;45.83;;;;;;;12.36;100.00;103822.53;2006191;71;32920;-71
2022/03/19 09:23:07;;;;;;;46.00;42.93;;;;;;;12.44;100.00;103821.40;1998665;71;32895;-67
2022/03/19 09:28:51;;;;;;;48.40;44.97;;;;;;;12.79;100.00;103810.08;1995672;71;33287;-68
2022/03/19 09:34:35;;;;;;;48.90;45.63;;;;;;;12.52;100.00;103809.43;1997258;71;32774;-71
2022/03/19 09:40:20;;;;;;;39.60;36.80;;;;;;;12.85;100.00;103813.87;2011416;71;33435;-69
2022/03/19 09:46:07;;;;;;;44.47;41.53;;;;;;;12.87;100.00;103803.34;2011216;71;32848;-72
2022/03/19 09:51:54;;;;;;;32.03;29.67;;;;;;;12.76;100.00;103798.81;2005954;71;32952;-70
2022/03/19 09:57:38;;;;;;;31.17;28.77;;;;;;;12.90;100.00;103792.58;2011951;71;32801;-73
2022/03/19 10:03:25;;;;;;;32.83;30.10;;;;;;;12.98;100.00;103788.09;2006467;71;33238;-73
2022/03/19 10:09:09;;;;;;;32.07;29.40;;;;;;;13.10;100.00;103785.38;2015326;71;32942;-72
2022/03/19 10:14:54;;;;;;;34.57;31.90;;;;;;;13.39;100.00;103779.07;2007600;71;32914;-72
2022/03/19 10:20:42;;;;;;;30.83;28.63;;;;;;;13.17;100.00;103769.47;2000374;71;32875;-73
2022/03/19 10:26:29;;;;;;;30.47;27.97;;;;;;;13.35;100.00;103765.84;1998776;71;32830;-73
2022/03/19 10:32:14;;;;;;;28.73;26.47;;;;;;;13.45;100.00;103753.02;2017057;71;32921;-67
2022/03/19 10:38:01;;;;;;;28.63;26.23;;;;;;;13.47;100.00;103757.84;2002917;71;33206;-67
2022/03/19 10:43:55;;;;;;;27.03;24.77;;;;;;;13.63;100.00;103757.20;2018615;71;32802;-72
2022/03/19 10:46:27;;;;;;;27.90;25.43;;;;;;;13.52;100.00;103757.14;1967067;72;26668;-72
2022/03/19 10:52:17;;;;;;;27.57;25.20;;;;;;;13.67;100.00;103750.59;2014906;71;32823;-67
2022/03/19 10:58:02;;;;;;;28.90;26.23;;;;;;;13.65;100.00;103750.81;2007864;70;32921;-65
2022/03/19 11:03:50;;;;;;;34.87;31.00;;;;;;;13.52;100.00;103738.41;1991361;71;32830;-73
2022/03/19 11:09:38;;;;;;;27.90;25.43;;;;;;;13.75;100.00;103727.91;2000389;71;32928;-73
2022/03/19 11:15:26;;;;;;;27.47;25.10;;;;;;;13.82;100.00;103732.02;2014969;71;32883;-67
2022/03/19 11:21:10;;;;;;;26.73;24.43;;;;;;;13.85;100.00;103726.80;1997350;71;32889;-66
2022/03/19 11:26:59;;;;;;;27.17;24.97;;;;;;;13.89;100.00;103728.03;2015193;71;32924;-73
2022/03/19 11:33:05;;;;;;;26.47;24.27;;;;;;;13.95;100.00;103725.66;1995397;71;33307;-72
2022/03/19 11:41:59;;;;;;;26.30;23.83;;;;;;;14.06;100.00;103715.08;2061035;69;33092;-65
2022/03/19 11:44:29;;;;;;;25.07;22.53;;;;;;;14.12;100.00;103720.23;1936445;73;26232;-66
2022/03/19 11:47:02;;;;;;;24.73;22.40;;;;;;;14.03;100.00;103710.52;1931227;73;26220;-72
2022/03/19 11:49:52;;;;;;;23.00;20.90;;;;;;;13.97;100.00;103708.67;1965622;72;26745;-71
2022/03/19 11:52:59;;;;;;;25.07;22.73;;;;;;;14.08;100.00;103714.82;1933340;73;26231;-69
2022/03/19 11:55:29;;;;;;;24.17;21.90;;;;;;;14.12;100.00;103704.86;1942692;73;26773;-69
2022/03/19 11:58:03;;;;;;;23.23;21.13;;;;;;;14.16;100.00;103703.33;2014083;70;26199;-65
2022/03/19 12:00:33;;;;;;;23.57;21.40;;;;;;;14.24;100.00;103700.17;2026410;70;26234;-65
2022/03/19 12:03:07;;;;;;;23.17;20.97;;;;;;;14.22;100.00;103704.28;2024492;70;26676;-69
2022/03/19 12:05:39;;;;;;;27.37;24.67;;;;;;;14.13;100.00;103704.63;1976398;72;26208;-72
2022/03/19 12:08:15;;;;;;;26.90;24.73;;;;;;;14.09;100.00;103702.56;1980484;72;26246;-71
2022/03/19 12:10:57;;;;;;;25.60;23.70;;;;;;;14.24;100.00;103695.13;1983819;72;26693;-65
2022/03/19 12:13:46;;;;;;;22.63;20.43;;;;;;;14.16;100.00;103699.12;1980534;72;26213;-64
2022/03/19 12:16:35;;;;;;;22.83;20.47;;;;;;;14.20;100.00;103684.97;1980432;72;26201;-70
2022/03/19 12:19:05;;;;;;;20.77;18.93;;;;;;;14.31;100.00;103679.08;1914556;74;26276;-65
2022/03/19 12:24:50;;;;;;;21.43;19.53;;;;;;;14.02;100.00;103662.15;2002755;71;32778;-67
2022/03/19 12:30:37;;;;;;;21.93;19.73;;;;;;;14.41;100.00;103652.26;1998663;71;32857;-74
2022/03/19 12:36:21;;;;;;;21.30;19.30;;;;;;;14.30;100.00;103646.06;1998608;71;32832;-67
2022/03/19 12:42:08;;;;;;;20.53;18.63;;;;;;;14.51;100.00;103635.70;2002665;71;33140;-68
2022/03/19 12:47:55;;;;;;;19.90;18.20;;;;;;;14.30;100.00;103623.69;2018589;71;33494;-73
2022/03/19 12:53:40;;;;;;;21.33;19.40;;;;;;;14.52;100.00;103619.22;1998720;71;33338;-73
2022/03/19 12:59:30;;;;;;;20.50;18.43;;;;;;;14.51;100.00;103617.52;2013241;71;33448;-67
2022/03/19 13:05:14;;;;;;;20.20;18.33;;;;;;;14.34;100.00;103599.73;1978760;72;32934;-72
2022/03/19 13:11:17;;;;;;;19.17;17.53;;;;;;;14.38;100.00;103580.55;2009600;71;33350;-67
2022/03/19 13:17:02;;;;;;;18.30;16.60;;;;;;;14.36;100.00;103578.56;1998512;71;32953;-68
2022/03/19 13:22:47;;;;;;;18.03;16.60;;;;;;;14.27;100.00;103572.45;2009584;71;32912;-73
2022/03/19 13:28:31;;;;;;;17.87;16.47;;;;;;;14.32;100.00;103567.53;2011694;71;33332;-67
2022/03/19 13:34:20;;;;;;;20.63;17.27;;;;;;;14.16;100.00;103563.53;2004007;71;32838;-74
2022/03/19 13:40:08;;;;;;;18.57;16.70;;;;;;;14.01;100.00;103551.97;2005574;71;32850;-75
2022/03/19 13:46:12;;;;;;;18.27;16.60;;;;;;;14.19;100.00;103539.27;2003113;71;32839;-73
2022/03/19 13:51:57;;;;;;;17.67;15.87;;;;;;;14.07;100.00;103527.25;2004120;71;32873;-67
2022/03/19 13:57:59;;;;;;;16.13;14.83;;;;;;;14.16;100.00;103523.55;2009825;71;33356;-66
2022/03/19 14:03:43;;;;;;;16.93;15.47;;;;;;;13.99;100.00;103519.23;1998690;71;32871;-68
2022/03/19 14:09:27;;;;;;;15.87;14.67;;;;;;;14.03;100.00;103499.48;1998865;71;32784;-67
2022/03/19 14:15:16;;;;;;;16.07;14.87;;;;;;;14.13;100.00;103494.11;2016932;71;33393;-67
2022/03/19 14:21:08;;;;;;;15.27;14.07;;;;;;;14.07;100.00;103490.91;2017131;71;32856;-66
2022/03/19 14:26:56;;;;;;;16.60;15.20;;;;;;;14.04;100.00;103483.00;2002383;71;33324;-72
2022/03/19 14:32:40;;;;;;;16.67;15.07;;;;;;;14.00;100.00;103484.58;2013299;71;33033;-66
2022/03/19 14:38:57;;;;;;;14.47;13.47;;;;;;;14.18;100.00;103472.41;2016930;71;32975;-65
2022/03/19 14:44:41;;;;;;;15.30;14.20;;;;;;;14.06;100.00;103455.12;1991677;71;32852;-71
2022/03/19 14:50:25;;;;;;;15.90;14.70;;;;;;;14.09;100.00;103449.57;2004518;71;32919;-71
2022/03/19 14:56:11;;;;;;;15.30;14.10;;;;;;;14.20;100.00;103436.14;1995452;71;33374;-72
2022/03/19 15:01:55;;;;;;;15.10;14.00;;;;;;;14.11;100.00;103428.68;2005981;71;32919;-72
2022/03/19 15:07:38;;;;;;;14.70;13.40;;;;;;;14.10;100.00;103421.93;1995511;71;32868;-72
2022/03/19 15:13:27;;;;;;;14.07;12.87;;;;;;;14.20;100.00;103417.11;2008255;71;32820;-72
2022/03/19 15:19:11;;;;;;;15.43;13.73;;;;;;;14.02;100.00;103399.95;2002689;71;33285;-70
2022/03/19 15:24:55;;;;;;;13.50;12.60;;;;;;;13.94;100.00;103382.17;1994833;70;32852;-71
2022/03/19 15:30:41;;;;;;;15.20;13.97;;;;;;;13.95;100.00;103381.05;2004625;71;32843;-70
2022/03/19 15:36:26;;;;;;;15.23;13.97;;;;;;;13.86;100.00;103386.75;2014989;71;33438;-70
2022/03/19 15:42:10;;;;;;;15.27;13.93;;;;;;;14.08;100.00;103382.17;2013381;71;32965;-68
2022/03/19 15:47:55;;;;;;;15.80;14.50;;;;;;;13.79;100.00;103372.89;2008145;71;33382;-69
2022/03/19 15:53:39;;;;;;;15.43;14.40;;;;;;;13.72;100.00;103348.98;1997244;71;32976;-71
2022/03/19 15:59:23;;;;;;;16.70;15.37;;;;;;;13.57;100.00;103358.71;2011872;71;32887;-68
2022/03/19 16:05:11;;;;;;;16.63;15.23;;;;;;;13.58;100.00;103352.58;1980132;72;33044;-71
2022/03/19 16:10:55;;;;;;;16.73;15.47;;;;;;;13.44;100.00;103349.19;2004427;71;32843;-74
2022/03/19 16:16:39;;;;;;;17.53;15.83;;;;;;;13.47;100.00;103340.89;2000956;71;32851;-66
2022/03/19 16:22:23;;;;;;;16.47;14.97;;;;;;;13.23;100.00;103342.28;2004439;71;32804;-68
2022/03/19 16:28:07;;;;;;;17.13;15.73;;;;;;;13.20;100.00;103351.69;2014921;71;32916;-75
2022/03/19 16:33:51;;;;;;;17.10;15.80;;;;;;;13.12;100.00;103336.16;2015061;70;32950;-73
2022/03/19 16:39:35;;;;;;;17.67;16.10;;;;;;;12.95;100.00;103339.33;2013757;71;33317;-75
2022/03/19 16:45:20;;;;;;;17.47;15.90;;;;;;;12.96;100.00;103331.27;2008218;71;32919;-73
2022/03/19 16:51:04;;;;;;;16.23;14.87;;;;;;;12.79;100.00;103330.27;2018615;71;32875;-74
2022/03/19 16:56:50;;;;;;;16.20;14.37;;;;;;;12.71;100.00;103332.84;2000253;71;32892;-71
2022/03/19 17:02:35;;;;;;;16.43;14.90;;;;;;;12.61;100.00;103328.95;2014919;71;32829;-74
2022/03/19 17:08:19;;;;;;;15.60;13.90;;;;;;;12.58;100.00;103329.44;1994969;71;32862;-68
2022/03/19 17:14:03;;;;;;;14.40;13.40;;;;;;;12.53;100.00;103331.55;2015062;71;32898;-73
2022/03/19 17:19:47;;;;;;;14.23;13.13;;;;;;;12.40;100.00;103330.34;2005944;71;33387;-67
2022/03/19 17:25:31;;;;;;;18.13;14.97;;;;;;;12.28;100.00;103325.24;1998790;70;33310;-67
2022/03/19 17:31:15;;;;;;;14.37;13.20;;;;;;;12.10;100.00;103329.49;2013297;71;32946;-67
2022/03/19 17:36:59;;;;;;;15.33;13.93;;;;;;;12.01;100.00;103322.00;2018651;71;32898;-69
2022/03/19 17:42:43;;;;;;;14.67;13.17;;;;;;;11.99;100.00;103313.55;2015058;71;33335;-71
2022/03/19 17:48:28;;;;;;;14.60;13.30;;;;;;;11.94;100.00;103307.28;2018717;71;32899;-71
2022/03/19 17:54:12;;;;;;;14.50;13.17;;;;;;;11.77;100.00;103304.30;2010128;71;33254;-70
2022/03/19 17:59:56;;;;;;;14.93;13.30;;;;;;;11.49;100.00;103290.05;2007687;71;32912;-70
2022/03/19 18:05:40;;;;;;;13.47;12.30;;;;;;;11.50;100.00;103297.87;1938189;74;33089;-67
2022/03/19 18:11:24;;;;;;;14.57;13.27;;;;;;;11.60;100.00;103296.23;2014948;71;32871;-69
2022/03/19 18:17:08;;;;;;;13.90;12.67;;;;;;;11.51;100.00;103292.62;2000520;71;33334;-71
2022/03/19 18:22:54;;;;;;;14.20;13.00;;;;;;;11.20;100.00;103301.95;1998788;71;33478;-68
2022/03/19 18:28:40;;;;;;;15.27;13.60;;;;;;;11.25;100.00;103298.76;2016734;71;33305;-69
2022/03/19 18:34:23;;;;;;;13.03;11.73;;;;;;;11.18;100.00;103302.17;2013397;71;33408;-70
2022/03/19 18:40:10;;;;;;;12.43;11.43;;;;;;;11.18;100.00;103296.59;1998591;71;32833;-77
2022/03/19 18:45:54;;;;;;;12.50;11.37;;;;;;;11.09;100.00;103301.30;2016847;71;32832;-74
2022/03/19 18:51:38;;;;;;;13.00;11.80;;;;;;;11.02;100.00;103299.12;2011745;71;33239;-70
2022/03/19 18:57:23;;;;;;;13.37;12.07;;;;;;;11.08;100.00;103303.78;2009550;71;33329;-68
2022/03/19 19:03:07;;;;;;;13.30;12.27;;;;;;;10.74;100.00;103310.16;2005788;71;32922;-72
2022/03/19 19:08:51;;;;;;;12.80;11.70;;;;;;;10.74;100.00;103307.95;2004305;71;32786;-73
2022/03/19 19:14:35;;;;;;;13.23;11.90;;;;;;;10.58;100.00;103312.65;1991988;71;33406;-71
2022/03/19 19:20:20;;;;;;;13.37;11.93;;;;;;;10.45;100.00;103313.06;2004443;71;33369;-77
2022/03/19 19:26:06;;;;;;;16.20;13.17;;;;;;;10.58;100.00;103303.77;2015019;71;32902;-77
2022/03/19 19:31:51;;;;;;;12.57;11.43;;;;;;;10.60;100.00;103293.30;1991469;71;33375;-76
2022/03/19 19:37:36;;;;;;;13.93;12.43;;;;;;;10.50;100.00;103304.91;2015166;70;32836;-70
2022/03/19 19:43:23;;;;;;;13.00;11.83;;;;;;;10.57;100.00;103292.91;2004438;71;34227;-75
2022/03/19 19:49:06;;;;;;;13.33;12.07;;;;;;;10.56;100.00;103285.10;1996976;71;32766;-75
2022/03/19 19:54:51;;;;;;;13.20;11.83;;;;;;;10.53;100.00;103281.89;2007911;71;32905;-76
2022/03/19 20:00:37;;;;;;;12.90;11.77;;;;;;;10.50;100.00;103277.66;2011283;71;33303;-76
2022/03/19 20:07:38;;;;;;;13.30;12.10;;;;;;;10.37;100.00;103275.83;2013239;71;32853;-74
2022/03/19 20:12:09;;;;;;;14.10;12.63;;;;;;;10.48;100.00;103275.09;1998536;71;31369;-75
2022/03/19 20:17:54;;;;;;;13.37;12.10;;;;;;;10.50;100.00;103275.73;2000729;71;33241;-76
2022/03/19 20:23:39;;;;;;;14.03;12.53;;;;;;;10.28;100.00;103274.92;2009401;71;32945;-67
2022/03/19 20:29:22;;;;;;;13.50;12.30;;;;;;;10.22;100.00;103275.30;2016929;71;33317;-71
2022/03/19 20:35:10;;;;;;;13.77;12.47;;;;;;;10.26;100.00;103273.78;2004088;71;33374;-78
2022/03/19 20:41:02;;;;;;;13.20;11.90;;;;;;;10.01;100.00;103277.83;2000260;71;33372;-74
2022/03/19 20:46:42;;;;;;;14.37;12.70;;;;;;;10.03;100.00;103278.47;2009497;71;32897;-75
2022/03/19 20:52:26;;;;;;;14.07;12.73;;;;;;;9.90;100.00;103266.59;2015238;71;33310;-71
2022/03/19 20:58:11;;;;;;;14.60;12.50;;;;;;;9.68;100.00;103264.66;2015195;71;32948;-72
2022/03/19 21:03:59;;;;;;;15.53;12.77;;;;;;;9.68;100.00;103262.42;1996514;69;32784;-74
2022/03/19 21:09:41;;;;;;;13.77;12.47;;;;;;;9.94;100.00;103267.84;2011537;71;32930;-74
2022/03/19 21:15:29;;;;;;;13.83;12.53;;;;;;;9.91;100.00;103263.59;2004601;71;33338;-72
2022/03/19 21:21:13;;;;;;;13.90;12.50;;;;;;;9.80;100.00;103265.67;2014861;71;33465;-73
2022/03/19 21:26:57;;;;;;;12.43;11.23;;;;;;;9.90;100.00;103266.59;2018404;71;33313;-76
2022/03/19 21:32:42;;;;;;;12.60;11.60;;;;;;;9.82;100.00;103254.36;2006207;71;33449;-74
2022/03/19 21:38:27;;;;;;;12.37;11.33;;;;;;;9.80;100.00;103255.95;2016626;71;33464;-68
2022/03/19 21:44:11;;;;;;;13.17;11.83;;;;;;;9.70;100.00;103253.35;1998350;71;32930;-75
2022/03/19 21:49:57;;;;;;;13.77;12.47;;;;;;;9.66;100.00;103244.63;2016726;71;32897;-74
2022/03/19 21:55:42;;;;;;;12.73;11.53;;;;;;;9.63;100.00;103238.11;1995125;71;33323;-76
2022/03/19 22:01:26;;;;;;;15.73;12.27;;;;;;;9.73;100.00;103239.02;1991513;71;33242;-74
2022/03/19 22:07:09;;;;;;;12.73;11.60;;;;;;;9.60;100.00;103241.33;2003865;71;32836;-73
2022/03/19 22:12:53;;;;;;;12.93;11.13;;;;;;;9.66;100.00;103234.91;2009316;70;32806;-73
2022/03/19 22:18:37;;;;;;;15.13;12.07;;;;;;;9.51;100.00;103245.42;1999409;71;32862;-79
2022/03/19 22:24:21;;;;;;;13.00;11.80;;;;;;;9.63;100.00;103239.49;2009433;71;32957;-82
2022/03/19 22:30:07;;;;;;;12.47;11.43;;;;;;;9.54;100.00;103239.45;2008252;70;33320;-78
2022/03/19 22:35:51;;;;;;;12.40;11.30;;;;;;;9.68;100.00;103241.61;2011965;71;32756;-75
2022/03/19 22:41:35;;;;;;;12.47;11.23;;;;;;;9.41;100.00;103244.48;1999054;71;32895;-74
2022/03/19 22:47:20;;;;;;;13.03;10.97;;;;;;;9.45;100.00;103233.30;2018572;71;32931;-75
2022/03/19 22:53:07;;;;;;;13.57;12.20;;;;;;;9.49;100.00;103235.95;2000484;71;32820;-79
2022/03/19 22:58:52;;;;;;;12.03;11.03;;;;;;;9.56;100.00;103223.42;2014936;71;32939;-82
2022/03/19 23:04:38;;;;;;;12.50;11.50;;;;;;;9.51;100.00;103226.85;1991309;71;32835;-81
2022/03/19 23:10:25;;;;;;;12.70;11.53;;;;;;;9.40;100.00;103222.01;2005930;70;32973;-74
2022/03/19 23:16:09;;;;;;;13.47;12.03;;;;;;;9.34;100.00;103220.63;2004453;71;32804;-73
2022/03/19 23:21:53;;;;;;;14.93;11.93;;;;;;;9.35;100.00;103206.55;2014845;71;32931;-83
2022/03/19 23:27:38;;;;;;;12.40;11.20;;;;;;;9.18;100.00;103210.88;1995231;71;32832;-79
2022/03/19 23:33:23;;;;;;;12.23;11.27;;;;;;;9.05;100.00;103202.07;2009715;71;33302;-76
2022/03/19 23:39:07;;;;;;;13.20;12.07;;;;;;;8.97;100.00;103191.75;2013517;71;32761;-76
2022/03/19 23:44:52;;;;;;;12.53;11.07;;;;;;;8.87;100.00;103193.58;1995298;71;32855;-81
2022/03/19 23:50:36;;;;;;;12.47;11.37;;;;;;;8.93;100.00;103172.47;2000857;71;33225;-82
2022/03/19 23:56:21;;;;;;;11.87;10.87;;;;;;;8.97;100.00;103164.89;2008198;70;32822;-79
